sensor_id;sensor_type;location;lat;lon;timestamp;temperature;humidity
20442;DHT22;10380;52.102;20.614;2023-03-14T00:00:11;10.20;99.90
20442;DHT22;10380;52.102;20.614;2023-03-14T00:02:40;10.20;99.90
20442;DHT22;10380;52.102;20.614;2023-03-14T00:05:07;10.10;99.90
20442;DHT22;10380;52.102;20.614;2023-03-14T00:07:36;10.20;99.90
20442;DHT22;10380;52.102;20.614;2023-03-14T00:10:06;10.10;99.90
20442;DHT22;10380;52.102;20.614;2023-03-14T00:12:34;10.10;99.90
20442;DHT22;10380;52.102;20.614;2023-03-14T00:15:01;10.10;99.90
20442;DHT22;10380;52.102;20.614;2023-03-14T00:17:30;10.10;99.90
20442;DHT22;10380;52.102;20.614;2023-03-14T00:19:58;10.10;99.90
20442;DHT22;10380;52.102;20.614;2023-03-14T00:22:31;10.10;99.90
20442;DHT22;10380;52.102;20.614;2023-03-14T00:24:58;10.10;99.90
20442;DHT22;10380;52.102;20.614;2023-03-14T00:27:25;10.10;99.90
20442;DHT22;10380;52.102;20.614;2023-03-14T00:29:52;10.10;99.90
20442;DHT22;10380;52.102;20.614;2023-03-14T00:32:19;10.10;99.90
20442;DHT22;10380;52.102;20.614;2023-03-14T00:34:47;10.10;99.90
20442;DHT22;10380;52.102;20.614;2023-03-14T00:37:14;10.10;99.90
20442;DHT22;10380;52.102;20.614;2023-03-14T00:39:42;10.10;99.90
20442;DHT22;10380;52.102;20.614;2023-03-14T00:42:09;10.10;99.90
20442;DHT22;10380;52.102;20.614;2023-03-14T00:44:36;10.10;99.90
20442;DHT22;10380;52.102;20.614;2023-03-14T00:47:04;10.10;99.90
20442;DHT22;10380;52.102;20.614;2023-03-14T00:49:31;10.10;99.90
20442;DHT22;10380;52.102;20.614;2023-03-14T00:51:58;10.10;99.90
20442;DHT22;10380;52.102;20.614;2023-03-14T00:54:25;10.00;99.90
20442;DHT22;10380;52.102;20.614;2023-03-14T00:56:53;10.10;99.90
20442;DHT22;10380;52.102;20.614;2023-03-14T00:59:20;10.10;99.90
20442;DHT22;10380;52.102;20.614;2023-03-14T01:01:47;10.10;99.90
20442;DHT22;10380;52.102;20.614;2023-03-14T01:04:13;10.10;99.90
20442;DHT22;10380;52.102;20.614;2023-03-14T01:06:40;10.10;99.90
20442;DHT22;10380;52.102;20.614;2023-03-14T01:09:07;10.10;99.90
20442;DHT22;10380;52.102;20.614;2023-03-14T01:11:34;10.00;99.90
20442;DHT22;10380;52.102;20.614;2023-03-14T01:14:03;10.10;99.90
20442;DHT22;10380;52.102;20.614;2023-03-14T01:16:32;10.00;99.90
20442;DHT22;10380;52.102;20.614;2023-03-14T01:19:02;10.00;99.90
20442;DHT22;10380;52.102;20.614;2023-03-14T01:21:32;10.00;99.90
20442;DHT22;10380;52.102;20.614;2023-03-14T01:24:01;10.00;99.90
20442;DHT22;10380;52.102;20.614;2023-03-14T01:26:31;9.90;99.90
20442;DHT22;10380;52.102;20.614;2023-03-14T01:28:59;9.90;99.90
20442;DHT22;10380;52.102;20.614;2023-03-14T01:31:28;9.90;99.90
20442;DHT22;10380;52.102;20.614;2023-03-14T01:33:55;9.90;99.90
20442;DHT22;10380;52.102;20.614;2023-03-14T01:36:25;9.90;99.90
20442;DHT22;10380;52.102;20.614;2023-03-14T01:38:52;9.80;99.90
20442;DHT22;10380;52.102;20.614;2023-03-14T01:41:22;9.80;99.90
20442;DHT22;10380;52.102;20.614;2023-03-14T01:43:50;9.80;99.90
20442;DHT22;10380;52.102;20.614;2023-03-14T01:54:43;9.60;99.90
20442;DHT22;10380;52.102;20.614;2023-03-14T01:57:15;9.50;99.90
20442;DHT22;10380;52.102;20.614;2023-03-14T01:59:54;9.50;99.90
20442;DHT22;10380;52.102;20.614;2023-03-14T02:02:24;9.50;99.90
20442;DHT22;10380;52.102;20.614;2023-03-14T02:04:54;9.50;99.90
20442;DHT22;10380;52.102;20.614;2023-03-14T02:07:27;9.40;99.90
20442;DHT22;10380;52.102;20.614;2023-03-14T02:09:59;9.40;99.90
20442;DHT22;10380;52.102;20.614;2023-03-14T02:12:27;9.30;99.90
20442;DHT22;10380;52.102;20.614;2023-03-14T02:14:54;9.30;99.90
20442;DHT22;10380;52.102;20.614;2023-03-14T02:17:22;9.30;99.90
20442;DHT22;10380;52.102;20.614;2023-03-14T02:19:53;9.30;99.90
20442;DHT22;10380;52.102;20.614;2023-03-14T02:22:21;9.20;99.90
20442;DHT22;10380;52.102;20.614;2023-03-14T02:25:17;9.20;99.90
20442;DHT22;10380;52.102;20.614;2023-03-14T02:27:48;9.20;99.90
20442;DHT22;10380;52.102;20.614;2023-03-14T02:30:25;9.20;99.90
20442;DHT22;10380;52.102;20.614;2023-03-14T02:32:57;9.20;99.90
20442;DHT22;10380;52.102;20.614;2023-03-14T02:35:28;9.20;99.90
20442;DHT22;10380;52.102;20.614;2023-03-14T02:38:04;9.10;99.90
20442;DHT22;10380;52.102;20.614;2023-03-14T02:40:33;9.10;99.90
20442;DHT22;10380;52.102;20.614;2023-03-14T02:43:00;9.10;99.90
20442;DHT22;10380;52.102;20.614;2023-03-14T02:45:36;9.10;99.90
20442;DHT22;10380;52.102;20.614;2023-03-14T02:48:18;9.10;99.90
20442;DHT22;10380;52.102;20.614;2023-03-14T02:50:47;9.10;99.90
20442;DHT22;10380;52.102;20.614;2023-03-14T02:53:21;9.10;99.90
20442;DHT22;10380;52.102;20.614;2023-03-14T02:55:50;9.10;99.90
20442;DHT22;10380;52.102;20.614;2023-03-14T02:58:18;9.10;99.90
20442;DHT22;10380;52.102;20.614;2023-03-14T03:00:45;9.10;99.90
20442;DHT22;10380;52.102;20.614;2023-03-14T03:03:13;9.20;99.90
20442;DHT22;10380;52.102;20.614;2023-03-14T03:05:40;9.20;99.90
20442;DHT22;10380;52.102;20.614;2023-03-14T03:08:08;9.20;99.90
20442;DHT22;10380;52.102;20.614;2023-03-14T03:10:35;9.30;99.90
20442;DHT22;10380;52.102;20.614;2023-03-14T03:13:02;9.30;99.90
20442;DHT22;10380;52.102;20.614;2023-03-14T03:15:31;9.30;99.90
20442;DHT22;10380;52.102;20.614;2023-03-14T03:17:58;9.30;99.90
20442;DHT22;10380;52.102;20.614;2023-03-14T03:20:26;9.30;99.90
20442;DHT22;10380;52.102;20.614;2023-03-14T03:22:53;9.30;99.90
20442;DHT22;10380;52.102;20.614;2023-03-14T03:25:19;9.40;99.90
20442;DHT22;10380;52.102;20.614;2023-03-14T03:27:46;9.40;99.90
20442;DHT22;10380;52.102;20.614;2023-03-14T03:30:15;9.30;99.90
20442;DHT22;10380;52.102;20.614;2023-03-14T03:32:43;9.30;99.90
20442;DHT22;10380;52.102;20.614;2023-03-14T03:35:10;9.30;99.90
20442;DHT22;10380;52.102;20.614;2023-03-14T03:37:37;9.30;99.90
20442;DHT22;10380;52.102;20.614;2023-03-14T03:40:05;9.30;99.90
20442;DHT22;10380;52.102;20.614;2023-03-14T03:42:33;9.20;99.90
20442;DHT22;10380;52.102;20.614;2023-03-14T03:45:01;9.20;99.90
20442;DHT22;10380;52.102;20.614;2023-03-14T03:47:28;9.20;99.90
20442;DHT22;10380;52.102;20.614;2023-03-14T03:49:56;9.20;99.90
20442;DHT22;10380;52.102;20.614;2023-03-14T03:52:23;9.10;99.90
20442;DHT22;10380;52.102;20.614;2023-03-14T03:54:50;9.10;99.90
20442;DHT22;10380;52.102;20.614;2023-03-14T03:57:16;9.10;99.90
20442;DHT22;10380;52.102;20.614;2023-03-14T03:59:43;9.10;99.90
20442;DHT22;10380;52.102;20.614;2023-03-14T04:02:10;9.10;99.90
20442;DHT22;10380;52.102;20.614;2023-03-14T04:04:37;9.10;99.90
20442;DHT22;10380;52.102;20.614;2023-03-14T04:07:05;9.10;99.90
20442;DHT22;10380;52.102;20.614;2023-03-14T04:09:32;9.10;99.90
20442;DHT22;10380;52.102;20.614;2023-03-14T04:11:59;9.10;99.90
20442;DHT22;10380;52.102;20.614;2023-03-14T04:14:26;9.10;99.90
20442;DHT22;10380;52.102;20.614;2023-03-14T04:16:53;9.10;99.90
20442;DHT22;10380;52.102;20.614;2023-03-14T04:19:20;9.10;99.90
20442;DHT22;10380;52.102;20.614;2023-03-14T04:21:47;9.10;99.90
20442;DHT22;10380;52.102;20.614;2023-03-14T04:24:15;9.10;99.90
20442;DHT22;10380;52.102;20.614;2023-03-14T04:26:42;9.20;99.90
20442;DHT22;10380;52.102;20.614;2023-03-14T04:29:09;9.20;99.90
20442;DHT22;10380;52.102;20.614;2023-03-14T04:31:40;9.20;99.90
20442;DHT22;10380;52.102;20.614;2023-03-14T04:34:07;9.20;99.90
20442;DHT22;10380;52.102;20.614;2023-03-14T04:36:33;9.20;99.90
20442;DHT22;10380;52.102;20.614;2023-03-14T04:39:03;9.20;99.90
20442;DHT22;10380;52.102;20.614;2023-03-14T04:41:31;9.20;99.90
20442;DHT22;10380;52.102;20.614;2023-03-14T04:43:58;9.20;99.90
20442;DHT22;10380;52.102;20.614;2023-03-14T04:46:26;9.20;99.90
20442;DHT22;10380;52.102;20.614;2023-03-14T04:48:53;9.30;99.90
20442;DHT22;10380;52.102;20.614;2023-03-14T04:51:22;9.30;99.90
20442;DHT22;10380;52.102;20.614;2023-03-14T04:53:51;9.30;99.90
20442;DHT22;10380;52.102;20.614;2023-03-14T04:56:18;9.30;99.90
20442;DHT22;10380;52.102;20.614;2023-03-14T04:58:45;9.40;99.90
20442;DHT22;10380;52.102;20.614;2023-03-14T05:01:12;9.40;99.90
20442;DHT22;10380;52.102;20.614;2023-03-14T05:03:39;9.40;99.90
20442;DHT22;10380;52.102;20.614;2023-03-14T05:06:06;9.50;99.90
20442;DHT22;10380;52.102;20.614;2023-03-14T05:08:33;9.50;99.90
20442;DHT22;10380;52.102;20.614;2023-03-14T05:11:00;9.50;99.90
20442;DHT22;10380;52.102;20.614;2023-03-14T05:13:27;9.50;99.90
20442;DHT22;10380;52.102;20.614;2023-03-14T05:16:07;9.50;99.90
20442;DHT22;10380;52.102;20.614;2023-03-14T05:18:34;9.50;99.90
20442;DHT22;10380;52.102;20.614;2023-03-14T05:21:04;9.50;99.90
20442;DHT22;10380;52.102;20.614;2023-03-14T05:23:31;9.40;99.90
20442;DHT22;10380;52.102;20.614;2023-03-14T05:25:58;9.40;99.90
20442;DHT22;10380;52.102;20.614;2023-03-14T05:28:31;9.40;99.90
20442;DHT22;10380;52.102;20.614;2023-03-14T05:30:58;9.40;99.90
20442;DHT22;10380;52.102;20.614;2023-03-14T05:33:25;9.40;99.90
20442;DHT22;10380;52.102;20.614;2023-03-14T05:35:51;9.40;99.90
20442;DHT22;10380;52.102;20.614;2023-03-14T05:38:18;9.40;99.90
20442;DHT22;10380;52.102;20.614;2023-03-14T05:40:45;9.40;99.90
20442;DHT22;10380;52.102;20.614;2023-03-14T05:43:13;9.50;99.90
20442;DHT22;10380;52.102;20.614;2023-03-14T05:45:40;9.60;99.90
20442;DHT22;10380;52.102;20.614;2023-03-14T05:48:07;9.50;99.90
20442;DHT22;10380;52.102;20.614;2023-03-14T05:50:34;9.60;99.90
20442;DHT22;10380;52.102;20.614;2023-03-14T05:53:02;9.70;99.90
20442;DHT22;10380;52.102;20.614;2023-03-14T05:55:29;9.70;99.90
20442;DHT22;10380;52.102;20.614;2023-03-14T05:57:56;9.80;99.90
20442;DHT22;10380;52.102;20.614;2023-03-14T06:00:23;9.90;99.90
20442;DHT22;10380;52.102;20.614;2023-03-14T06:02:49;9.90;99.90
20442;DHT22;10380;52.102;20.614;2023-03-14T06:05:16;9.90;99.90
20442;DHT22;10380;52.102;20.614;2023-03-14T06:07:43;9.90;99.90
20442;DHT22;10380;52.102;20.614;2023-03-14T06:10:10;9.90;99.90
20442;DHT22;10380;52.102;20.614;2023-03-14T06:12:37;9.90;99.90
20442;DHT22;10380;52.102;20.614;2023-03-14T06:15:04;9.90;99.90
20442;DHT22;10380;52.102;20.614;2023-03-14T06:17:31;9.90;99.90
20442;DHT22;10380;52.102;20.614;2023-03-14T06:19:58;10.00;99.90
20442;DHT22;10380;52.102;20.614;2023-03-14T06:22:25;10.00;99.90
20442;DHT22;10380;52.102;20.614;2023-03-14T06:24:51;10.10;99.90
20442;DHT22;10380;52.102;20.614;2023-03-14T06:27:18;10.20;99.90
20442;DHT22;10380;52.102;20.614;2023-03-14T06:29:45;10.30;99.90
20442;DHT22;10380;52.102;20.614;2023-03-14T06:32:12;10.40;99.90
20442;DHT22;10380;52.102;20.614;2023-03-14T06:34:38;10.40;99.90
20442;DHT22;10380;52.102;20.614;2023-03-14T06:37:05;10.60;99.90
20442;DHT22;10380;52.102;20.614;2023-03-14T06:39:32;10.70;99.90
20442;DHT22;10380;52.102;20.614;2023-03-14T06:41:59;10.90;99.90
20442;DHT22;10380;52.102;20.614;2023-03-14T06:44:26;11.10;99.90
20442;DHT22;10380;52.102;20.614;2023-03-14T06:46:53;11.30;99.90
20442;DHT22;10380;52.102;20.614;2023-03-14T06:49:20;11.40;99.90
20442;DHT22;10380;52.102;20.614;2023-03-14T06:51:46;11.50;99.90
20442;DHT22;10380;52.102;20.614;2023-03-14T06:54:13;11.70;99.90
20442;DHT22;10380;52.102;20.614;2023-03-14T06:56:40;11.70;99.90
20442;DHT22;10380;52.102;20.614;2023-03-14T06:59:07;11.80;99.90
20442;DHT22;10380;52.102;20.614;2023-03-14T07:01:34;11.90;99.90
20442;DHT22;10380;52.102;20.614;2023-03-14T07:04:02;11.90;99.90
20442;DHT22;10380;52.102;20.614;2023-03-14T07:06:29;12.00;99.90
20442;DHT22;10380;52.102;20.614;2023-03-14T07:08:56;12.00;99.90
20442;DHT22;10380;52.102;20.614;2023-03-14T07:11:23;12.00;99.90
20442;DHT22;10380;52.102;20.614;2023-03-14T07:13:50;12.10;99.90
20442;DHT22;10380;52.102;20.614;2023-03-14T07:16:16;12.10;99.90
20442;DHT22;10380;52.102;20.614;2023-03-14T07:18:43;12.20;99.90
20442;DHT22;10380;52.102;20.614;2023-03-14T07:21:10;12.30;99.90
20442;DHT22;10380;52.102;20.614;2023-03-14T07:23:38;12.20;99.90
20442;DHT22;10380;52.102;20.614;2023-03-14T07:26:05;12.30;99.90
20442;DHT22;10380;52.102;20.614;2023-03-14T07:28:32;12.30;99.90
20442;DHT22;10380;52.102;20.614;2023-03-14T07:30:59;12.30;99.90
20442;DHT22;10380;52.102;20.614;2023-03-14T07:33:26;12.40;99.90
20442;DHT22;10380;52.102;20.614;2023-03-14T07:35:53;12.40;99.90
20442;DHT22;10380;52.102;20.614;2023-03-14T07:38:19;12.50;99.90
20442;DHT22;10380;52.102;20.614;2023-03-14T07:40:49;12.60;99.90
20442;DHT22;10380;52.102;20.614;2023-03-14T07:43:16;12.70;99.90
20442;DHT22;10380;52.102;20.614;2023-03-14T07:45:46;12.90;99.90
20442;DHT22;10380;52.102;20.614;2023-03-14T07:48:16;13.00;99.90
20442;DHT22;10380;52.102;20.614;2023-03-14T07:50:43;13.10;99.90
20442;DHT22;10380;52.102;20.614;2023-03-14T07:53:10;13.30;99.90
20442;DHT22;10380;52.102;20.614;2023-03-14T07:55:37;13.30;99.90
20442;DHT22;10380;52.102;20.614;2023-03-14T07:58:05;13.50;99.90
20442;DHT22;10380;52.102;20.614;2023-03-14T08:00:33;13.60;99.90
20442;DHT22;10380;52.102;20.614;2023-03-14T08:02:59;13.60;99.90
20442;DHT22;10380;52.102;20.614;2023-03-14T08:05:27;13.70;99.90
20442;DHT22;10380;52.102;20.614;2023-03-14T08:07:54;13.70;99.90
20442;DHT22;10380;52.102;20.614;2023-03-14T08:10:21;13.60;99.90
20442;DHT22;10380;52.102;20.614;2023-03-14T08:12:55;13.60;99.90
20442;DHT22;10380;52.102;20.614;2023-03-14T08:15:23;13.60;99.90
20442;DHT22;10380;52.102;20.614;2023-03-14T08:17:50;13.50;99.90
20442;DHT22;10380;52.102;20.614;2023-03-14T08:20:18;13.50;99.90
20442;DHT22;10380;52.102;20.614;2023-03-14T08:22:45;13.50;99.90
20442;DHT22;10380;52.102;20.614;2023-03-14T08:25:12;13.50;99.90
20442;DHT22;10380;52.102;20.614;2023-03-14T08:27:39;13.60;99.90
20442;DHT22;10380;52.102;20.614;2023-03-14T08:30:10;13.60;99.90
20442;DHT22;10380;52.102;20.614;2023-03-14T08:32:38;13.60;99.90
20442;DHT22;10380;52.102;20.614;2023-03-14T08:35:06;13.50;99.90
20442;DHT22;10380;52.102;20.614;2023-03-14T08:37:33;13.70;99.90
20442;DHT22;10380;52.102;20.614;2023-03-14T08:40:00;13.80;99.90
20442;DHT22;10380;52.102;20.614;2023-03-14T08:42:27;14.00;99.90
20442;DHT22;10380;52.102;20.614;2023-03-14T08:44:54;14.20;99.90
20442;DHT22;10380;52.102;20.614;2023-03-14T08:47:21;14.30;99.90
20442;DHT22;10380;52.102;20.614;2023-03-14T08:49:47;14.40;99.90
20442;DHT22;10380;52.102;20.614;2023-03-14T08:52:14;14.40;99.90
20442;DHT22;10380;52.102;20.614;2023-03-14T08:54:46;14.40;99.90
20442;DHT22;10380;52.102;20.614;2023-03-14T08:57:13;14.40;99.90
20442;DHT22;10380;52.102;20.614;2023-03-14T08:59:39;14.40;99.90
20442;DHT22;10380;52.102;20.614;2023-03-14T09:02:11;14.50;99.90
20442;DHT22;10380;52.102;20.614;2023-03-14T09:04:39;14.50;99.90
20442;DHT22;10380;52.102;20.614;2023-03-14T09:07:06;14.50;99.90
20442;DHT22;10380;52.102;20.614;2023-03-14T09:09:34;14.40;99.90
20442;DHT22;10380;52.102;20.614;2023-03-14T09:12:01;14.50;99.90
20442;DHT22;10380;52.102;20.614;2023-03-14T09:14:28;14.50;99.90
20442;DHT22;10380;52.102;20.614;2023-03-14T09:16:55;14.50;99.90
20442;DHT22;10380;52.102;20.614;2023-03-14T09:19:22;14.60;99.90
20442;DHT22;10380;52.102;20.614;2023-03-14T09:21:49;14.70;99.90
20442;DHT22;10380;52.102;20.614;2023-03-14T09:24:16;14.80;99.90
20442;DHT22;10380;52.102;20.614;2023-03-14T09:26:43;14.90;99.90
20442;DHT22;10380;52.102;20.614;2023-03-14T09:29:10;15.00;99.90
20442;DHT22;10380;52.102;20.614;2023-03-14T09:31:36;15.10;99.90
20442;DHT22;10380;52.102;20.614;2023-03-14T09:34:03;15.20;99.90
20442;DHT22;10380;52.102;20.614;2023-03-14T09:36:30;15.20;99.90
20442;DHT22;10380;52.102;20.614;2023-03-14T09:38:58;15.30;99.90
20442;DHT22;10380;52.102;20.614;2023-03-14T09:41:28;15.40;99.90
20442;DHT22;10380;52.102;20.614;2023-03-14T09:46:29;15.30;99.90
20442;DHT22;10380;52.102;20.614;2023-03-14T09:48:57;15.40;99.90
20442;DHT22;10380;52.102;20.614;2023-03-14T09:51:24;15.40;99.90
20442;DHT22;10380;52.102;20.614;2023-03-14T09:53:52;15.40;99.90
20442;DHT22;10380;52.102;20.614;2023-03-14T09:56:25;15.40;99.90
20442;DHT22;10380;52.102;20.614;2023-03-14T09:58:58;15.40;99.90
20442;DHT22;10380;52.102;20.614;2023-03-14T10:01:30;15.50;99.90
20442;DHT22;10380;52.102;20.614;2023-03-14T10:04:14;15.50;99.90
20442;DHT22;10380;52.102;20.614;2023-03-14T10:06:41;15.50;99.90
20442;DHT22;10380;52.102;20.614;2023-03-14T10:09:17;15.50;99.90
20442;DHT22;10380;52.102;20.614;2023-03-14T10:11:45;15.50;99.90
20442;DHT22;10380;52.102;20.614;2023-03-14T10:14:12;15.60;99.90
20442;DHT22;10380;52.102;20.614;2023-03-14T10:16:45;15.60;99.90
20442;DHT22;10380;52.102;20.614;2023-03-14T10:19:14;15.60;99.90
20442;DHT22;10380;52.102;20.614;2023-03-14T10:21:44;15.60;99.90
20442;DHT22;10380;52.102;20.614;2023-03-14T10:24:27;15.60;99.90
20442;DHT22;10380;52.102;20.614;2023-03-14T10:27:03;15.60;99.90
20442;DHT22;10380;52.102;20.614;2023-03-14T10:29:31;15.70;99.90
20442;DHT22;10380;52.102;20.614;2023-03-14T10:32:01;15.70;99.90
20442;DHT22;10380;52.102;20.614;2023-03-14T10:34:34;15.70;99.90
20442;DHT22;10380;52.102;20.614;2023-03-14T10:37:20;15.60;99.90
20442;DHT22;10380;52.102;20.614;2023-03-14T10:39:51;15.50;99.90
20442;DHT22;10380;52.102;20.614;2023-03-14T10:42:27;15.50;99.90
20442;DHT22;10380;52.102;20.614;2023-03-14T10:45:00;15.50;99.90
20442;DHT22;10380;52.102;20.614;2023-03-14T10:47:28;15.50;99.90
20442;DHT22;10380;52.102;20.614;2023-03-14T10:49:56;15.50;99.90
20442;DHT22;10380;52.102;20.614;2023-03-14T10:52:24;15.50;99.90
20442;DHT22;10380;52.102;20.614;2023-03-14T10:55:12;15.40;99.90
20442;DHT22;10380;52.102;20.614;2023-03-14T10:57:40;15.40;99.90
20442;DHT22;10380;52.102;20.614;2023-03-14T11:00:25;15.40;99.90
20442;DHT22;10380;52.102;20.614;2023-03-14T11:05:57;15.40;99.90
20442;DHT22;10380;52.102;20.614;2023-03-14T11:08:42;15.40;99.90
20442;DHT22;10380;52.102;20.614;2023-03-14T11:11:26;15.30;99.90
20442;DHT22;10380;52.102;20.614;2023-03-14T11:19:56;15.10;99.90
20442;DHT22;10380;52.102;20.614;2023-03-14T11:25:21;15.20;99.90
20442;DHT22;10380;52.102;20.614;2023-03-14T11:28:09;15.30;99.90
20442;DHT22;10380;52.102;20.614;2023-03-14T11:33:38;15.70;99.90
20442;DHT22;10380;52.102;20.614;2023-03-14T11:36:11;15.80;99.90
20442;DHT22;10380;52.102;20.614;2023-03-14T11:38:55;15.80;99.90
20442;DHT22;10380;52.102;20.614;2023-03-14T11:41:39;15.70;99.90
20442;DHT22;10380;52.102;20.614;2023-03-14T11:44:19;15.60;99.90
20442;DHT22;10380;52.102;20.614;2023-03-14T11:49:33;15.50;99.90
20442;DHT22;10380;52.102;20.614;2023-03-14T11:52:16;15.40;99.90
20442;DHT22;10380;52.102;20.614;2023-03-14T11:54:58;15.40;99.90
20442;DHT22;10380;52.102;20.614;2023-03-14T11:57:26;15.40;99.90
20442;DHT22;10380;52.102;20.614;2023-03-14T12:03:00;15.30;99.90
20442;DHT22;10380;52.102;20.614;2023-03-14T12:14:27;14.90;99.90
20442;DHT22;10380;52.102;20.614;2023-03-14T12:19:42;14.50;99.90
20442;DHT22;10380;52.102;20.614;2023-03-14T12:22:27;14.40;99.90
20442;DHT22;10380;52.102;20.614;2023-03-14T12:30:30;14.10;99.90
20442;DHT22;10380;52.102;20.614;2023-03-14T12:35:38;13.90;99.90
20442;DHT22;10380;52.102;20.614;2023-03-14T12:38:23;13.90;99.90
20442;DHT22;10380;52.102;20.614;2023-03-14T12:43:31;13.60;99.90
20442;DHT22;10380;52.102;20.614;2023-03-14T12:48:49;13.30;99.90
20442;DHT22;10380;52.102;20.614;2023-03-14T12:51:19;13.20;99.90
20442;DHT22;10380;52.102;20.614;2023-03-14T13:02:13;12.70;99.90
20442;DHT22;10380;52.102;20.614;2023-03-14T13:07:15;12.50;99.90
20442;DHT22;10380;52.102;20.614;2023-03-14T13:15:46;12.20;99.90
20442;DHT22;10380;52.102;20.614;2023-03-14T13:18:17;12.20;99.90
20442;DHT22;10380;52.102;20.614;2023-03-14T13:20:57;12.10;99.90
20442;DHT22;10380;52.102;20.614;2023-03-14T13:23:32;12.10;99.90
20442;DHT22;10380;52.102;20.614;2023-03-14T13:26:00;12.10;99.90
20442;DHT22;10380;52.102;20.614;2023-03-14T13:28:29;12.20;99.90
20442;DHT22;10380;52.102;20.614;2023-03-14T13:31:01;12.20;99.90
20442;DHT22;10380;52.102;20.614;2023-03-14T13:33:29;12.20;99.90
20442;DHT22;10380;52.102;20.614;2023-03-14T13:35:58;12.20;99.90
20442;DHT22;10380;52.102;20.614;2023-03-14T13:38:27;12.20;99.90
20442;DHT22;10380;52.102;20.614;2023-03-14T13:40:56;12.20;99.90
20442;DHT22;10380;52.102;20.614;2023-03-14T13:43:32;12.10;99.90
20442;DHT22;10380;52.102;20.614;2023-03-14T13:46:11;12.10;99.90
20442;DHT22;10380;52.102;20.614;2023-03-14T13:48:47;12.00;99.90
20442;DHT22;10380;52.102;20.614;2023-03-14T13:51:17;12.00;99.90
20442;DHT22;10380;52.102;20.614;2023-03-14T13:53:52;11.90;99.90
20442;DHT22;10380;52.102;20.614;2023-03-14T13:56:24;11.80;99.90
20442;DHT22;10380;52.102;20.614;2023-03-14T13:58:52;11.70;99.90
20442;DHT22;10380;52.102;20.614;2023-03-14T14:01:33;11.60;99.90
20442;DHT22;10380;52.102;20.614;2023-03-14T14:04:13;11.70;99.90
20442;DHT22;10380;52.102;20.614;2023-03-14T14:06:46;11.70;99.90
20442;DHT22;10380;52.102;20.614;2023-03-14T14:09:19;11.60;99.90
20442;DHT22;10380;52.102;20.614;2023-03-14T14:11:56;11.60;99.90
20442;DHT22;10380;52.102;20.614;2023-03-14T14:14:52;11.60;99.90
20442;DHT22;10380;52.102;20.614;2023-03-14T14:17:31;11.50;99.90
20442;DHT22;10380;52.102;20.614;2023-03-14T14:20:01;11.60;99.90
20442;DHT22;10380;52.102;20.614;2023-03-14T14:22:32;11.60;99.90
20442;DHT22;10380;52.102;20.614;2023-03-14T14:25:00;11.60;99.90
20442;DHT22;10380;52.102;20.614;2023-03-14T14:27:28;11.60;99.90
20442;DHT22;10380;52.102;20.614;2023-03-14T14:30:04;11.60;99.90
20442;DHT22;10380;52.102;20.614;2023-03-14T14:32:39;11.60;99.90
20442;DHT22;10380;52.102;20.614;2023-03-14T14:35:08;11.60;99.90
20442;DHT22;10380;52.102;20.614;2023-03-14T14:37:44;11.60;99.90
20442;DHT22;10380;52.102;20.614;2023-03-14T14:40:44;11.60;99.90
20442;DHT22;10380;52.102;20.614;2023-03-14T14:43:26;11.60;99.90
20442;DHT22;10380;52.102;20.614;2023-03-14T14:45:54;11.60;99.90
20442;DHT22;10380;52.102;20.614;2023-03-14T14:48:24;11.60;99.90
20442;DHT22;10380;52.102;20.614;2023-03-14T14:51:03;11.50;99.90
20442;DHT22;10380;52.102;20.614;2023-03-14T14:53:36;11.50;99.90
20442;DHT22;10380;52.102;20.614;2023-03-14T14:58:36;11.40;99.90
20442;DHT22;10380;52.102;20.614;2023-03-14T15:01:16;11.40;99.90
20442;DHT22;10380;52.102;20.614;2023-03-14T15:03:44;11.40;99.90
20442;DHT22;10380;52.102;20.614;2023-03-14T15:06:14;11.30;99.90
20442;DHT22;10380;52.102;20.614;2023-03-14T15:08:42;11.30;99.90
20442;DHT22;10380;52.102;20.614;2023-03-14T15:11:19;11.30;99.90
20442;DHT22;10380;52.102;20.614;2023-03-14T15:13:46;11.30;99.90
20442;DHT22;10380;52.102;20.614;2023-03-14T15:16:19;11.20;99.90
20442;DHT22;10380;52.102;20.614;2023-03-14T15:18:53;11.20;99.90
20442;DHT22;10380;52.102;20.614;2023-03-14T15:21:21;11.20;99.90
20442;DHT22;10380;52.102;20.614;2023-03-14T15:23:48;11.20;99.90
20442;DHT22;10380;52.102;20.614;2023-03-14T15:26:18;11.10;99.90
20442;DHT22;10380;52.102;20.614;2023-03-14T15:28:45;11.00;99.90
20442;DHT22;10380;52.102;20.614;2023-03-14T15:31:16;11.00;99.90
20442;DHT22;10380;52.102;20.614;2023-03-14T15:33:45;11.00;99.90
20442;DHT22;10380;52.102;20.614;2023-03-14T15:36:24;11.00;99.90
20442;DHT22;10380;52.102;20.614;2023-03-14T15:38:52;11.00;99.90
20442;DHT22;10380;52.102;20.614;2023-03-14T15:41:20;11.00;99.90
20442;DHT22;10380;52.102;20.614;2023-03-14T15:43:47;11.00;99.90
20442;DHT22;10380;52.102;20.614;2023-03-14T15:46:14;11.00;99.90
20442;DHT22;10380;52.102;20.614;2023-03-14T15:48:45;11.00;99.90
20442;DHT22;10380;52.102;20.614;2023-03-14T15:51:12;11.00;99.90
20442;DHT22;10380;52.102;20.614;2023-03-14T15:53:39;11.00;99.90
20442;DHT22;10380;52.102;20.614;2023-03-14T15:56:09;11.00;99.90
20442;DHT22;10380;52.102;20.614;2023-03-14T15:58:38;11.00;99.90
20442;DHT22;10380;52.102;20.614;2023-03-14T16:01:07;11.00;99.90
20442;DHT22;10380;52.102;20.614;2023-03-14T16:03:37;11.00;99.90
20442;DHT22;10380;52.102;20.614;2023-03-14T16:06:05;11.00;99.90
20442;DHT22;10380;52.102;20.614;2023-03-14T16:08:32;11.00;99.90
20442;DHT22;10380;52.102;20.614;2023-03-14T16:10:59;11.00;99.90
20442;DHT22;10380;52.102;20.614;2023-03-14T16:13:26;11.00;99.90
20442;DHT22;10380;52.102;20.614;2023-03-14T16:15:58;11.00;99.90
20442;DHT22;10380;52.102;20.614;2023-03-14T16:18:28;11.00;99.90
20442;DHT22;10380;52.102;20.614;2023-03-14T16:21:00;11.00;99.90
20442;DHT22;10380;52.102;20.614;2023-03-14T16:23:28;11.00;99.90
20442;DHT22;10380;52.102;20.614;2023-03-14T16:25:55;11.00;99.90
20442;DHT22;10380;52.102;20.614;2023-03-14T16:28:23;10.90;99.90
20442;DHT22;10380;52.102;20.614;2023-03-14T16:30:50;10.90;99.90
20442;DHT22;10380;52.102;20.614;2023-03-14T16:33:17;10.90;99.90
20442;DHT22;10380;52.102;20.614;2023-03-14T16:35:57;10.90;99.90
20442;DHT22;10380;52.102;20.614;2023-03-14T16:38:27;10.90;99.90
20442;DHT22;10380;52.102;20.614;2023-03-14T16:41:05;10.90;99.90
20442;DHT22;10380;52.102;20.614;2023-03-14T16:43:33;10.90;99.90
20442;DHT22;10380;52.102;20.614;2023-03-14T16:46:04;10.90;99.90
20442;DHT22;10380;52.102;20.614;2023-03-14T16:48:31;10.90;99.90
20442;DHT22;10380;52.102;20.614;2023-03-14T16:50:58;10.90;99.90